Chattanooga, Tennessee
Current Conditions -  °F | °C
As of 3:53 PM on Friday 24 Oct 2014 (Local Time) from KCHA Reporting Station
Scattered Clouds Scattered Clouds  
Wind Chill: 71°   Ceiling: Unl
Heat Index: 71°   Visibility: 10mi
Dew Point: 43°   Wind: 5mph
Humidity: 36%   Direction: NA
Pressure: 30.04"   Gusts: NA
Location:  35.05°N, 85.31°W
Report Text: KCHA 241953Z VRB04KT 10SM SCT110 22/06 A3004 RMK AO2 SLP169 T02170061
Loading
Personal Weather Stations






























Interactive Weather Map
Tropical Storm Tracking
New forecast layout! Learn more

10-Day Weather Forecast

Advertisements
Track Severe Weather on mobile